createdAt,value
2018-01-15T00:00:35.369Z,29.15
2018-01-15T00:03:02.585Z,28.17
2018-01-15T00:05:29.108Z,26.67
2018-01-15T00:07:55.535Z,27.40
2018-01-15T00:10:22.124Z,27.92
2018-01-15T00:12:49.330Z,27.13
2018-01-15T00:15:15.797Z,30.33
2018-01-15T00:17:43.004Z,27.37
2018-01-15T00:20:09.454Z,25.85
2018-01-15T00:22:35.882Z,27.52
2018-01-15T00:25:02.299Z,28.15
2018-01-15T00:27:28.753Z,26.27
2018-01-15T00:29:55.196Z,28.52
2018-01-15T00:32:21.706Z,27.23
2018-01-15T00:34:48.198Z,26.37
2018-01-15T00:37:14.692Z,24.85
2018-01-15T00:39:41.167Z,27.35
2018-01-15T00:42:07.573Z,26.30
2018-01-15T00:44:34.082Z,24.17
2018-01-15T00:47:00.609Z,24.02
2018-01-15T00:49:27.034Z,25.05
2018-01-15T00:51:54.165Z,26.25
2018-01-15T00:54:20.772Z,24.33
2018-01-15T00:56:48.184Z,25.90
2018-01-15T00:59:15.417Z,31.58
2018-01-15T01:01:41.893Z,25.27
2018-01-15T01:04:08.351Z,25.60
2018-01-15T01:06:34.742Z,26.23
2018-01-15T01:09:01.149Z,23.80
2018-01-15T01:11:27.672Z,25.58
2018-01-15T01:13:54.240Z,23.38
2018-01-15T01:16:20.643Z,27.10
2018-01-15T01:18:47.133Z,25.67
2018-01-15T01:21:14.309Z,28.40
2018-01-15T01:23:40.697Z,25.23
2018-01-15T01:26:07.156Z,26.12
2018-01-15T01:28:34.453Z,29.23
2018-01-15T01:31:00.894Z,25.12
2018-01-15T01:33:27.337Z,32.40
2018-01-15T01:35:53.843Z,31.35
2018-01-15T01:38:20.301Z,27.30
2018-01-15T01:40:46.709Z,28.10
2018-01-15T01:43:13.280Z,26.25
2018-01-15T01:45:39.807Z,32.72
2018-01-15T01:48:06.256Z,32.58
2018-01-15T01:50:32.685Z,28.95
2018-01-15T01:52:59.076Z,34.67
2018-01-15T01:55:25.607Z,28.70
2018-01-15T01:57:52.177Z,15.43
2018-01-15T02:00:18.572Z,25.42
2018-01-15T02:02:45.073Z,33.83
2018-01-15T02:05:12.358Z,32.60
2018-01-15T02:07:38.744Z,28.80
2018-01-15T02:10:05.287Z,32.03
2018-01-15T02:12:32.506Z,35.38
2018-01-15T02:14:58.945Z,30.50
2018-01-15T02:17:25.433Z,29.23
2018-01-15T02:19:51.940Z,31.25
2018-01-15T02:22:19.094Z,34.20
2018-01-15T02:24:45.606Z,30.02
2018-01-15T02:27:12.024Z,33.75
2018-01-15T02:29:38.416Z,31.60
2018-01-15T02:32:04.857Z,29.40
2018-01-15T02:34:31.281Z,27.10
2018-01-15T02:36:57.830Z,29.60
2018-01-15T02:39:24.530Z,37.63
2018-01-15T02:41:51.699Z,33.38
2018-01-15T02:44:18.181Z,31.00
2018-01-15T02:46:44.645Z,38.58
2018-01-15T02:49:11.797Z,22.48
2018-01-15T02:51:38.934Z,22.15
2018-01-15T02:54:06.153Z,24.95
2018-01-15T02:56:32.600Z,25.67
2018-01-15T02:58:59.040Z,31.52
2018-01-15T03:01:25.449Z,14.95
2018-01-15T03:03:51.865Z,80.22
2018-01-15T03:06:18.306Z,37.22
2018-01-15T03:08:44.737Z,40.42
2018-01-15T03:11:11.246Z,24.87
2018-01-15T03:13:37.657Z,33.25
2018-01-15T03:16:04.803Z,35.85
2018-01-15T03:18:31.240Z,49.22
2018-01-15T03:20:57.672Z,48.17
2018-01-15T03:23:24.072Z,32.50
2018-01-15T03:25:50.484Z,35.13
2018-01-15T03:28:16.903Z,30.25
2018-01-15T03:30:43.336Z,30.05
2018-01-15T03:33:09.734Z,36.85
2018-01-15T03:35:36.344Z,34.33
2018-01-15T03:38:03.486Z,32.10
2018-01-15T03:40:29.853Z,30.25
2018-01-15T03:42:56.256Z,34.67
2018-01-15T03:45:22.680Z,33.97
2018-01-15T03:47:49.298Z,35.10
2018-01-15T03:50:15.795Z,34.28
2018-01-15T03:52:42.271Z,32.63
2018-01-15T03:55:08.650Z,38.83
2018-01-15T03:57:35.024Z,29.42
2018-01-15T04:00:01.444Z,33.28
2018-01-15T04:02:27.846Z,37.30
2018-01-15T04:04:54.324Z,34.30
2018-01-15T04:07:20.737Z,30.98
2018-01-15T04:09:47.163Z,36.97
2018-01-15T04:12:13.660Z,35.15
2018-01-15T04:14:40.777Z,33.47
2018-01-15T04:17:07.240Z,39.45
2018-01-15T04:19:34.417Z,16.37
2018-01-15T04:22:00.862Z,32.30
2018-01-15T04:24:27.272Z,31.92
2018-01-15T04:29:28.525Z,31.52
2018-01-15T04:31:54.936Z,37.90
2018-01-15T04:34:21.418Z,37.35
2018-01-15T04:36:47.792Z,37.60
2018-01-15T04:39:14.266Z,30.10
2018-01-15T04:41:40.649Z,30.30
2018-01-15T04:44:07.018Z,32.47
2018-01-15T04:46:34.186Z,37.22
2018-01-15T04:49:00.560Z,39.50
2018-01-15T04:51:26.969Z,39.80
2018-01-15T04:53:53.372Z,32.38
2018-01-15T04:56:19.781Z,37.58
2018-01-15T04:58:47.032Z,27.83
2018-01-15T05:01:14.140Z,36.13
2018-01-15T05:03:40.668Z,29.95
2018-01-15T05:06:07.060Z,38.75
2018-01-15T05:08:33.487Z,34.63
2018-01-15T05:11:00.636Z,46.28
2018-01-15T05:13:27.782Z,33.33
2018-01-15T05:15:55.017Z,36.40
2018-01-15T05:18:21.396Z,34.03
2018-01-15T05:20:47.777Z,34.88
2018-01-15T05:23:14.396Z,37.80
2018-01-15T05:25:40.772Z,35.17
2018-01-15T05:28:07.297Z,40.80
2018-01-15T05:30:34.451Z,36.60
2018-01-15T05:33:01.572Z,37.22
2018-01-15T05:35:28.561Z,40.92
2018-01-15T05:37:54.951Z,40.80
2018-01-15T05:40:21.358Z,42.80
2018-01-15T05:42:48.600Z,32.13
2018-01-15T05:45:15.036Z,47.15
2018-01-15T05:47:42.187Z,39.63
2018-01-15T05:50:08.585Z,37.45
2018-01-15T05:52:35.027Z,42.92
2018-01-15T05:55:01.461Z,40.33
2018-01-15T05:57:27.898Z,46.33
2018-01-15T05:59:54.357Z,36.47
2018-01-15T06:02:20.748Z,32.78
2018-01-15T06:04:47.148Z,31.27
2018-01-15T06:07:14.457Z,26.83
2018-01-15T06:09:40.864Z,15.00
2018-01-15T06:12:07.261Z,47.53
2018-01-15T06:14:34.524Z,41.37
2018-01-15T06:17:01.699Z,46.08
2018-01-15T06:19:28.828Z,41.75
2018-01-15T06:21:56.090Z,48.87
2018-01-15T06:24:22.464Z,49.50
2018-01-15T06:26:48.875Z,46.17
2018-01-15T06:29:15.268Z,49.38
2018-01-15T06:31:42.382Z,41.65
2018-01-15T06:34:08.828Z,44.67
2018-01-15T06:36:35.213Z,43.50
2018-01-15T06:39:01.651Z,43.70
2018-01-15T06:41:28.055Z,44.20
2018-01-15T06:43:55.199Z,47.10
2018-01-15T06:46:22.377Z,41.85
2018-01-15T06:48:48.832Z,41.10
2018-01-15T06:51:15.234Z,19.35
2018-01-15T06:53:41.631Z,32.67
2018-01-15T06:56:08.794Z,42.15
2018-01-15T06:58:35.955Z,54.38
2018-01-15T07:01:02.391Z,47.05
2018-01-15T07:03:28.897Z,49.70
2018-01-15T07:05:56.088Z,52.17
2018-01-15T07:08:22.512Z,41.22
2018-01-15T07:10:55.812Z,44.65
2018-01-15T07:13:22.232Z,40.15
2018-01-15T07:15:48.697Z,44.75
2018-01-15T07:18:15.095Z,47.92
2018-01-15T07:20:41.511Z,46.50
2018-01-15T07:23:08.668Z,44.53
2018-01-15T07:25:35.134Z,43.90
2018-01-15T07:28:01.561Z,42.92
2018-01-15T07:30:28.105Z,48.05
2018-01-15T07:32:54.492Z,44.50
2018-01-15T07:35:21.636Z,43.22
2018-01-15T07:37:48.788Z,45.12
2018-01-15T07:40:15.961Z,38.88
2018-01-15T07:42:42.365Z,36.28
2018-01-15T07:45:09.540Z,47.62
2018-01-15T07:47:35.963Z,28.73
2018-01-15T07:50:02.330Z,40.42
2018-01-15T07:52:28.859Z,44.95
2018-01-15T07:54:55.268Z,43.13
2018-01-15T07:57:21.772Z,49.00
2018-01-15T07:59:49.029Z,47.28
2018-01-15T08:05:15.239Z,38.10
2018-01-15T08:07:41.647Z,42.60
2018-01-15T08:10:08.059Z,46.30
2018-01-15T08:12:34.684Z,43.47
2018-01-15T08:15:01.880Z,43.20
2018-01-15T08:17:28.257Z,43.53
2018-01-15T08:19:55.611Z,48.08
2018-01-15T08:22:22.852Z,43.45
2018-01-15T08:24:50.006Z,44.80
2018-01-15T08:27:17.176Z,47.10
2018-01-15T08:29:43.545Z,46.37
2018-01-15T08:32:09.919Z,45.12
2018-01-15T08:34:37.086Z,40.33
2018-01-15T08:37:04.236Z,37.95
2018-01-15T08:39:33.320Z,41.92
2018-01-15T08:41:59.708Z,40.17
2018-01-15T08:44:26.105Z,39.15
2018-01-15T08:46:52.780Z,40.08
2018-01-15T08:49:19.174Z,34.85
2018-01-15T08:51:45.569Z,40.33
2018-01-15T08:54:12.696Z,39.20
2018-01-15T08:56:39.129Z,18.92
2018-01-15T08:59:05.504Z,41.25
2018-01-15T09:01:31.949Z,32.28
2018-01-15T09:03:58.420Z,35.10
2018-01-15T09:06:24.876Z,36.38
2018-01-15T09:08:51.280Z,27.15
2018-01-15T09:11:17.868Z,40.60
2018-01-15T09:13:45.021Z,33.67
2018-01-15T09:16:11.459Z,32.15
2018-01-15T09:18:37.847Z,39.85
2018-01-15T09:21:04.233Z,28.40
2018-01-15T09:23:30.628Z,36.03
2018-01-15T09:25:57.754Z,36.42
2018-01-15T09:28:24.230Z,34.47
2018-01-15T09:30:50.695Z,41.17
2018-01-15T09:33:24.116Z,32.65
2018-01-15T09:35:52.084Z,23.52
2018-01-15T09:38:18.468Z,24.58
2018-01-15T09:40:44.932Z,39.90
2018-01-15T09:43:11.393Z,40.78
2018-01-15T09:45:37.801Z,33.92
2018-01-15T09:48:04.208Z,30.25
2018-01-15T09:50:30.657Z,31.90
2018-01-15T09:52:57.103Z,32.30
2018-01-15T09:55:23.456Z,24.95
2018-01-15T09:57:49.925Z,31.23
2018-01-15T10:00:16.309Z,18.85
2018-01-15T10:02:42.673Z,31.37
2018-01-15T10:05:09.092Z,21.33
2018-01-15T10:07:36.245Z,34.85
2018-01-15T10:10:03.413Z,29.55
2018-01-15T10:12:29.936Z,36.63
2018-01-15T10:14:57.129Z,37.00
2018-01-15T10:17:23.678Z,26.33
2018-01-15T10:19:50.181Z,28.38
2018-01-15T10:22:16.613Z,17.48
2018-01-15T10:24:43.145Z,22.15
2018-01-15T10:27:09.633Z,26.27
2018-01-15T10:29:36.061Z,21.37
2018-01-15T10:32:02.466Z,27.02
2018-01-15T10:34:28.890Z,27.37
2018-01-15T10:36:55.306Z,20.17
2018-01-15T10:39:21.780Z,20.60
2018-01-15T10:41:48.238Z,34.97
2018-01-15T10:44:15.420Z,28.30
2018-01-15T10:46:41.869Z,30.92
2018-01-15T10:49:08.276Z,26.20
2018-01-15T10:51:34.755Z,15.40
2018-01-15T10:54:01.156Z,21.45
2018-01-15T10:56:27.592Z,26.58
2018-01-15T10:58:54.051Z,28.80
2018-01-15T11:01:26.281Z,28.38
2018-01-15T11:03:52.751Z,33.10
2018-01-15T11:06:19.153Z,37.22
2018-01-15T11:08:45.591Z,34.55
2018-01-15T11:11:11.981Z,31.77
2018-01-15T11:13:39.272Z,32.85
2018-01-15T11:16:05.694Z,31.55
2018-01-15T11:18:32.169Z,31.83
2018-01-15T11:20:58.590Z,31.12
2018-01-15T11:23:25.004Z,28.52
2018-01-15T11:25:51.520Z,31.10
2018-01-15T11:28:17.999Z,28.20
2018-01-15T11:30:44.429Z,32.40
2018-01-15T11:33:10.876Z,34.90
2018-01-15T11:35:37.379Z,32.08
2018-01-15T11:38:03.854Z,34.78
2018-01-15T11:40:30.288Z,34.20
2018-01-15T11:42:57.514Z,36.60
2018-01-15T11:45:23.932Z,29.35
2018-01-15T11:47:50.396Z,35.10
2018-01-15T11:50:16.796Z,30.48
2018-01-15T11:52:43.246Z,32.53
2018-01-15T11:55:09.669Z,34.20
2018-01-15T11:57:36.576Z,30.70
2018-01-15T12:00:03.016Z,33.28
2018-01-15T12:02:29.456Z,35.97
2018-01-15T12:04:55.888Z,29.60
2018-01-15T12:07:22.332Z,32.60
2018-01-15T12:09:48.769Z,32.90
2018-01-15T12:12:17.305Z,29.20
2018-01-15T12:14:44.472Z,25.98
2018-01-15T12:17:10.904Z,29.20
2018-01-15T12:19:37.356Z,31.05
2018-01-15T12:22:03.768Z,27.17
2018-01-15T12:24:30.196Z,30.55
2018-01-15T12:26:56.662Z,29.67
2018-01-15T12:29:23.094Z,25.15
2018-01-15T12:31:49.634Z,28.50
2018-01-15T12:34:16.858Z,31.80
2018-01-15T12:36:43.289Z,30.88
2018-01-15T12:39:09.689Z,30.08
2018-01-15T12:41:36.890Z,31.20
2018-01-15T12:44:03.329Z,29.63
2018-01-15T12:46:29.788Z,32.97
2018-01-15T12:48:56.241Z,22.27
2018-01-15T12:51:23.428Z,25.77
2018-01-15T12:53:49.852Z,25.83
2018-01-15T12:56:16.239Z,31.48
2018-01-15T12:58:43.458Z,36.20
2018-01-15T13:01:12.124Z,34.35
2018-01-15T13:03:38.539Z,28.45
2018-01-15T13:06:04.946Z,26.37
2018-01-15T13:08:59.129Z,29.12
2018-01-15T13:11:26.464Z,31.55
2018-01-15T13:13:53.154Z,31.85
2018-01-15T13:16:19.600Z,32.05
2018-01-15T13:18:46.025Z,24.70
2018-01-15T13:21:12.438Z,30.88
2018-01-15T13:23:39.013Z,29.08
2018-01-15T13:26:05.413Z,27.52
2018-01-15T13:28:31.956Z,31.42
2018-01-15T13:30:58.380Z,26.85
2018-01-15T13:33:24.766Z,32.13
2018-01-15T13:35:51.219Z,30.42
2018-01-15T13:38:18.376Z,29.80
2018-01-15T13:40:45.641Z,29.85
2018-01-15T13:43:12.105Z,29.37
2018-01-15T13:45:38.545Z,27.77
2018-01-15T13:48:04.990Z,28.92
2018-01-15T13:50:31.380Z,31.80
2018-01-15T13:52:57.790Z,24.70
2018-01-15T13:55:24.194Z,29.58
2018-01-15T13:57:50.658Z,27.45
2018-01-15T14:00:17.177Z,29.08
2018-01-15T14:02:44.463Z,24.60
2018-01-15T14:05:10.924Z,23.83
2018-01-15T14:07:37.416Z,27.65
2018-01-15T14:10:03.804Z,27.17
2018-01-15T14:12:30.367Z,22.13
2018-01-15T14:14:57.520Z,26.98
2018-01-15T14:17:24.710Z,25.02
2018-01-15T14:19:51.223Z,31.33
2018-01-15T14:22:17.732Z,27.25
2018-01-15T14:24:44.921Z,26.95
2018-01-15T14:27:11.344Z,27.27
2018-01-15T14:29:37.797Z,23.55
2018-01-15T14:32:04.344Z,18.08
2018-01-15T14:34:30.768Z,28.30
2018-01-15T14:36:57.177Z,27.17
2018-01-15T14:39:23.582Z,27.60
2018-01-15T14:41:50.785Z,28.75
2018-01-15T14:44:17.913Z,23.38
2018-01-15T14:46:44.290Z,26.75
2018-01-15T14:49:10.793Z,31.45
2018-01-15T14:51:37.184Z,28.42
2018-01-15T14:54:03.656Z,29.52
2018-01-15T14:56:30.076Z,20.95
2018-01-15T14:58:56.629Z,29.35
2018-01-15T15:01:23.072Z,29.77
2018-01-15T15:03:49.497Z,30.20
2018-01-15T15:06:16.023Z,32.17
2018-01-15T15:08:43.075Z,20.17
2018-01-15T15:11:10.770Z,25.20
2018-01-15T15:13:37.958Z,26.08
2018-01-15T15:16:04.764Z,11.70
2018-01-15T15:18:32.139Z,16.27
2018-01-15T15:20:58.779Z,30.33
2018-01-15T15:23:25.321Z,24.08
2018-01-15T15:25:51.951Z,27.13
2018-01-15T15:28:18.882Z,23.17
2018-01-15T15:30:45.728Z,21.60
2018-01-15T15:33:12.407Z,22.23
2018-01-15T15:35:38.941Z,21.95
2018-01-15T15:38:05.618Z,21.65
2018-01-15T15:40:32.293Z,25.40
2018-01-15T15:42:58.957Z,25.55
2018-01-15T15:45:25.568Z,20.02
2018-01-15T15:47:52.601Z,25.37
2018-01-15T15:50:19.266Z,19.40
2018-01-15T15:52:45.960Z,18.35
2018-01-15T15:55:13.250Z,17.62
2018-01-15T15:57:39.800Z,22.00
2018-01-15T16:00:06.581Z,18.60
2018-01-15T16:02:33.869Z,29.08
2018-01-15T16:05:00.393Z,18.92
2018-01-15T16:07:26.992Z,17.00
2018-01-15T16:09:53.521Z,18.42
2018-01-15T16:12:19.959Z,20.48
2018-01-15T16:14:46.660Z,25.65
2018-01-15T16:17:13.213Z,22.58
2018-01-15T16:19:40.440Z,21.73
2018-01-15T16:22:19.062Z,20.92
2018-01-15T16:24:45.506Z,18.87
2018-01-15T16:27:12.019Z,21.12
2018-01-15T16:29:38.464Z,22.33
2018-01-15T16:32:04.912Z,15.60
2018-01-15T16:34:31.387Z,20.67
2018-01-15T16:36:58.538Z,16.00
2018-01-15T16:39:25.972Z,17.75
2018-01-15T16:41:52.462Z,11.30
2018-01-15T16:44:18.917Z,17.55
2018-01-15T16:46:45.431Z,15.82
2018-01-15T16:49:11.863Z,16.37
2018-01-15T16:51:38.331Z,17.05
2018-01-15T16:54:04.903Z,12.40
2018-01-15T16:56:32.233Z,17.90
2018-01-15T16:58:58.871Z,12.88
2018-01-15T17:01:25.504Z,16.65
2018-01-15T17:03:52.203Z,18.25
2018-01-15T17:06:18.739Z,20.30
2018-01-15T17:08:45.499Z,16.50
2018-01-15T17:11:11.984Z,19.85
2018-01-15T17:13:38.444Z,18.52
2018-01-15T17:16:04.896Z,17.55
2018-01-15T17:18:31.360Z,25.67
2018-01-15T17:20:57.869Z,16.02
2018-01-15T17:23:24.299Z,17.98
2018-01-15T17:25:51.609Z,16.17
2018-01-15T17:28:18.137Z,11.77
2018-01-15T17:30:44.596Z,17.75
2018-01-15T17:33:11.121Z,20.20
2018-01-15T17:35:37.581Z,14.10
2018-01-15T17:38:04.119Z,17.67
2018-01-15T17:40:30.626Z,24.15
2018-01-15T17:42:57.188Z,23.00
2018-01-15T17:45:24.003Z,18.83
2018-01-15T17:47:50.466Z,17.25
2018-01-15T17:50:16.988Z,18.42
2018-01-15T17:52:43.510Z,15.25
2018-01-15T17:55:09.987Z,14.32
2018-01-15T17:57:36.544Z,18.87
2018-01-15T18:00:03.033Z,19.05
2018-01-15T18:02:29.526Z,18.75
2018-01-15T18:04:55.973Z,15.57
2018-01-15T18:07:22.475Z,16.77
2018-01-15T18:09:49.818Z,18.48
2018-01-15T18:12:17.021Z,16.85
2018-01-15T18:14:43.721Z,17.73
2018-01-15T18:17:10.938Z,19.50
2018-01-15T18:19:37.548Z,18.95
2018-01-15T18:22:04.050Z,19.98
2018-01-15T18:24:31.218Z,18.65
2018-01-15T18:26:57.711Z,22.90
2018-01-15T18:29:24.940Z,20.15
2018-01-15T18:31:51.449Z,15.20
2018-01-15T18:34:17.876Z,19.60
2018-01-15T18:36:44.441Z,20.15
2018-01-15T18:39:11.082Z,19.48
2018-01-15T18:41:38.462Z,17.15
2018-01-15T18:44:06.056Z,21.73
2018-01-15T18:46:32.908Z,15.65
2018-01-15T18:48:59.430Z,17.75
2018-01-15T18:51:25.994Z,18.80
2018-01-15T18:53:53.051Z,13.75
2018-01-15T18:56:20.552Z,20.90
2018-01-15T18:58:47.056Z,18.10
2018-01-15T19:01:13.786Z,16.15
2018-01-15T19:03:40.287Z,18.25
2018-01-15T19:06:06.748Z,18.50
2018-01-15T19:08:33.340Z,15.13
2018-01-15T19:10:59.877Z,16.98
2018-01-15T19:13:26.885Z,16.58
2018-01-15T19:15:54.963Z,18.80
2018-01-15T19:18:21.699Z,17.42
2018-01-15T19:20:48.896Z,17.35
2018-01-15T19:23:15.427Z,22.23
2018-01-15T19:25:41.902Z,20.37
2018-01-15T19:28:09.448Z,17.12
2018-01-15T19:30:35.925Z,26.75
2018-01-15T19:33:03.458Z,18.27
2018-01-15T19:38:34.646Z,19.02
2018-01-15T19:41:01.290Z,13.18
2018-01-15T19:43:33.944Z,22.42
2018-01-15T19:46:07.283Z,32.55
2018-01-15T19:48:39.646Z,25.92
2018-01-15T19:51:12.297Z,18.77
2018-01-15T19:53:45.492Z,30.45
2018-01-15T19:56:18.721Z,26.33
2018-01-15T19:58:51.326Z,25.30
2018-01-15T20:01:23.774Z,21.98
2018-01-15T20:03:57.349Z,31.12
2018-01-15T20:06:30.917Z,30.27
2018-01-15T20:12:06.353Z,23.27
2018-01-15T20:14:34.879Z,21.65
2018-01-15T20:17:02.060Z,24.33
2018-01-15T20:19:28.833Z,18.00
2018-01-15T20:21:55.401Z,17.87
2018-01-15T20:24:21.990Z,17.42
2018-01-15T20:26:49.622Z,17.20
2018-01-15T20:29:16.167Z,15.02
2018-01-15T20:31:43.591Z,13.27
2018-01-15T20:34:13.587Z,14.05
2018-01-15T20:36:40.834Z,17.92
2018-01-15T20:39:07.360Z,17.42
2018-01-15T20:41:35.209Z,12.02
2018-01-15T20:44:01.959Z,14.75
2018-01-15T20:46:28.432Z,17.83
2018-01-15T20:48:55.766Z,17.73
2018-01-15T20:51:22.202Z,22.90
2018-01-15T20:53:49.433Z,19.87
2018-01-15T20:56:15.853Z,21.23
2018-01-15T20:58:42.383Z,18.25
2018-01-15T21:01:08.843Z,14.27
2018-01-15T21:03:37.841Z,17.30
2018-01-15T21:06:04.248Z,16.25
2018-01-15T21:08:30.753Z,16.55
2018-01-15T21:10:57.951Z,9.77
2018-01-15T21:13:24.506Z,15.70
2018-01-15T21:15:51.713Z,23.27
2018-01-15T21:18:18.342Z,12.40
2018-01-15T21:20:45.672Z,13.30
2018-01-15T21:23:12.151Z,18.65
2018-01-15T21:25:38.662Z,15.82
2018-01-15T21:28:05.932Z,15.25
2018-01-15T21:30:32.425Z,19.87
2018-01-15T21:32:59.013Z,15.65
2018-01-15T21:35:25.498Z,13.30
2018-01-15T21:37:52.189Z,13.98
2018-01-15T21:40:18.736Z,18.40
2018-01-15T21:42:46.388Z,11.68
2018-01-15T21:48:16.909Z,14.40
2018-01-15T21:50:49.555Z,12.18
2018-01-15T21:53:16.435Z,18.73
2018-01-15T21:55:46.487Z,11.50
2018-01-15T21:58:13.016Z,7.32
2018-01-15T22:00:41.740Z,8.45
2018-01-15T22:03:08.483Z,10.23
2018-01-15T22:05:34.998Z,9.38
2018-01-15T22:08:01.578Z,7.60
2018-01-15T22:10:28.142Z,7.57
2018-01-15T22:12:55.346Z,7.03
2018-01-15T22:15:21.840Z,11.05
2018-01-15T22:17:49.033Z,5.75
2018-01-15T22:20:15.816Z,6.35
2018-01-15T22:22:43.013Z,5.82
2018-01-15T22:25:09.999Z,5.35
2018-01-15T22:27:36.742Z,9.48
2018-01-15T22:30:03.378Z,6.97
2018-01-15T22:32:30.211Z,5.85
2018-01-15T22:34:56.877Z,5.40
2018-01-15T22:37:24.262Z,5.40
2018-01-15T22:39:51.165Z,5.97
2018-01-15T22:42:18.628Z,10.07
2018-01-15T22:44:45.386Z,8.23
2018-01-15T22:47:12.725Z,4.70
2018-01-15T22:49:42.334Z,5.25
2018-01-15T22:52:13.692Z,9.07
2018-01-15T22:54:41.745Z,6.10
2018-01-15T22:57:09.556Z,9.55
2018-01-15T22:59:39.940Z,3.55
2018-01-15T23:02:07.451Z,3.28
2018-01-15T23:04:34.139Z,4.32
2018-01-15T23:07:00.921Z,11.65
2018-01-15T23:15:34.558Z,6.90
2018-01-15T23:18:01.566Z,7.65
2018-01-15T23:20:28.811Z,5.85
2018-01-15T23:22:56.404Z,5.78
2018-01-15T23:25:22.876Z,5.45
2018-01-15T23:27:49.300Z,4.15
2018-01-15T23:30:15.714Z,5.53
2018-01-15T23:32:42.133Z,4.32
2018-01-15T23:35:09.501Z,4.03
2018-01-15T23:37:35.943Z,6.18
2018-01-15T23:40:02.405Z,4.70
2018-01-15T23:42:28.789Z,4.30
2018-01-15T23:44:55.333Z,3.47
2018-01-15T23:47:21.750Z,4.75
2018-01-15T23:49:48.450Z,5.35
2018-01-15T23:52:15.123Z,3.40
2018-01-15T23:54:41.568Z,2.90
2018-01-15T23:57:08.024Z,2.95
2018-01-15T23:59:34.413Z,2.40
